Latest Weather Observations for Jacup

IDW60801

Issued at 8:53 am WST Monday 16 September 2019 (issued every 10 minutes, with the page automatically refreshed every 10 minutes)

About weather observations | Map of weather stations | Latest weather observations for WA | Other Formats
Station Details ID: 010905 Name: JACUP Lat: -33.89 Lon: 119.11 Height: 305.0 m
Data from the previous 72 hours. | See also: Recent months at Jacup
Date/Time
WST
Temp
°C
App
Temp
°C
Dew
Point
°C
Rel
Hum
%
Delta-T
°C
Wind Press
QNH
hPa
Press
MSL
hPa
Rain since
9am
mm
Dir  Spd
km/h
Gust
km/h
Spd
kts
Gust
kts
16/08:30am 12.5 7.3 7.4 71 2.5 NE 24 35 13 19 1026.3 1026.3 0.2
16/08:00am 11.1 5.9 7.2 77 1.9 NE 24 35 13 19 1026.4 1026.4 0.2
16/07:30am 10.0 5.9 7.9 87 1.0 NE 19 26 10 14 1026.3 1026.3 0.2
16/07:00am 9.8 6.3 8.6 92 0.6 NE 17 24 9 13 1026.4 1026.4 0.2
16/06:30am 9.3 5.7 8.4 94 0.4 NE 17 24 9 13 1026.1 1026.1 0.2
16/06:00am 9.6 6.8 8.7 94 0.4 NE 13 19 7 10 1026.1 1026.1 0.2
16/05:30am 9.6 6.5 8.8 95 0.4 ENE 15 20 8 11 1026.1 1026.1 0.2
16/05:00am 9.5 6.3 8.6 94 0.4 ENE 15 20 8 11 1025.9 1025.9 0.2
16/04:30am 9.9 6.9 9.1 95 0.4 E 15 20 8 11 1025.9 1025.9 0.2
16/04:00am 9.9 6.9 9.1 95 0.4 ENE 15 20 8 11 1026.0 1026.0 0.0
16/03:30am 10.0 7.4 9.2 95 0.4 E 13 19 7 10 1025.9 1025.9 0.0
16/03:00am 10.0 7.8 9.2 95 0.4 E 11 17 6 9 1026.1 1026.1 0.0
16/02:30am 10.0 7.7 9.1 94 0.5 E 11 15 6 8 1026.1 1026.1 0.0
16/02:00am 10.0 7.7 9.1 94 0.4 E 11 15 6 8 1026.2 1026.2 0.0
16/01:30am 9.6 7.2 8.7 94 0.4 E 11 17 6 9 1026.2 1026.2 0.0
16/01:00am 10.0 7.3 8.9 93 0.5 E 13 19 7 10 1026.4 1026.4 0.0
16/12:30am 10.3 7.3 9.2 93 0.6 E 15 22 8 12 1026.8 1026.8 0.0
16/12:00am 10.5 6.8 9.3 92 0.6 E 19 28 10 15 1027.0 1027.0 0.0
 
Date/Time
WST
Temp
°C
App
Temp
°C
Dew
Point
°C
Rel
Hum
%
Delta-T
°C
Wind Press
QNH
hPa
Press
MSL
hPa
Rain since
9am
mm
Dir  Spd
km/h
Gust
km/h
Spd
kts
Gust
kts
15/11:30pm 10.8 7.1 9.4 91 0.7 E 19 24 10 13 1026.9 1026.9 0.0
15/11:00pm 10.9 7.9 9.3 90 0.8 E 15 24 8 13 1027.0 1027.0 0.0
15/10:30pm 10.9 8.0 9.5 91 0.7 ESE 15 20 8 11 1027.1 1027.1 0.0
15/10:00pm 10.8 6.9 9.4 91 0.7 ESE 20 30 11 16 1027.1 1027.1 0.0
15/09:30pm 10.8 7.8 9.2 90 0.8 ESE 15 22 8 12 1027.1 1027.1 0.0
15/09:00pm 10.8 7.4 9.2 90 0.8 ESE 17 22 9 12 1027.1 1027.1 0.0
15/08:30pm 11.1 7.8 9.4 89 0.9 ESE 17 22 9 12 1027.1 1027.1 0.0
15/08:00pm 11.2 7.5 9.3 88 1.0 E 19 26 10 14 1026.7 1026.7 0.0
15/07:30pm 11.1 7.3 9.7 91 0.7 ESE 20 28 11 15 1026.4 1026.4 0.0
15/07:00pm 11.1 7.4 9.5 90 0.8 ESE 19 26 10 14 1026.3 1026.3 0.0
15/06:30pm 11.3 7.5 9.7 90 0.8 ESE 20 30 11 16 1026.2 1026.2 0.0
15/06:00pm 11.8 7.9 9.4 85 1.2 SE 20 30 11 16 1026.2 1026.2 0.0
15/05:30pm 12.4 8.4 9.1 80 1.7 SE 20 28 11 15 1025.9 1025.9 0.0
15/05:00pm 13.3 9.2 8.8 74 2.3 ESE 20 26 11 14 1025.6 1025.6 0.0
15/04:30pm 14.0 10.0 9.2 73 2.5 ESE 20 30 11 16 1025.1 1025.0 0.0
15/04:00pm 14.2 10.4 9.8 75 2.3 ESE 20 30 11 16 1025.1 1025.0 0.0
15/03:30pm 14.0 9.5 10.2 78 2.0 ESE 24 32 13 17 1024.9 1024.8 0.0
15/03:00pm 14.6 10.2 10.4 76 2.2 SE 24 37 13 20 1025.0 1024.9 0.0
15/02:30pm 16.2 12.4 9.8 66 3.4 SE 20 35 11 19 1024.8 1024.7 0.0
15/02:00pm 15.9 12.9 9.1 64 3.5 SE 15 20 8 11 1024.9 1024.8 0.0
15/01:30pm 16.4 12.7 9.6 64 3.6 ESE 19 26 10 14 1024.8 1024.7 0.0
15/01:00pm 16.7 14.2 9.6 63 3.7 SE 13 20 7 11 1024.7 1024.6 0.0
15/12:30pm 16.6 13.7 9.5 63 3.8 SE 15 22 8 12 1024.8 1024.7 0.0
15/12:00pm 15.8 12.4 9.2 65 3.4 SE 17 24 9 13 1025.0 1024.9 0.0
15/11:30am 15.4 12.6 10.0 70 2.9 SSE 15 20 8 11 1025.2 1025.1 0.0
15/11:00am 15.2 12.7 9.8 70 2.8 SE 13 20 7 11 1025.3 1025.2 0.0
15/10:30am 14.6 12.2 10.2 75 2.3 SE 13 20 7 11 1025.5 1025.5 0.0
15/10:00am 14.5 12.6 10.5 77 2.1 SE 11 17 6 9 1025.5 1025.5 0.0
15/09:30am 14.5 11.7 9.9 74 2.4 SE 15 20 8 11 1025.5 1025.5 0.0
15/09:00am 14.6 12.0 10.6 77 2.1 SE 15 20 8 11 1025.6 1025.6 0.6
15/08:30am 13.1 11.1 11.5 90 0.9 SSE 13 17 7 9 1025.5 1025.5 0.6
15/08:00am 12.7 11.1 11.6 93 0.6 SSE 11 15 6 8 1025.5 1025.5 0.6
15/07:30am 12.6 11.4 11.7 94 0.5 SSE 9 11 5 6 1025.3 1025.2 0.6
15/07:00am 12.2 11.5 11.3 94 0.5 S 6 7 3 4 1025.1 1025.0 0.6
15/06:30am 11.9 10.9 11.0 94 0.5 SSE 7 9 4 5 1024.8 1024.7 0.6
15/06:00am 11.9 11.1 11.0 94 0.5 SSE 6 9 3 5 1024.6 1024.5 0.6
15/05:30am 11.9 10.9 11.0 94 0.5 S 7 9 4 5 1024.5 1024.4 0.6
15/05:00am 12.0 12.3 10.9 93 0.6 CALM 0 0 0 0 1024.0 1024.0 0.6
15/04:30am 12.0 12.3 10.9 93 0.6 CALM 0 0 0 0 1023.9 1023.9 0.4
15/04:00am 12.2 12.6 11.1 93 0.6 CALM 0 6 0 3 1023.7 1023.7 0.4
15/03:30am 12.0 11.0 10.9 93 0.6 S 7 9 4 5 1023.4 1023.4 0.2
15/03:00am 12.0 11.0 10.9 93 0.6 SSE 7 11 4 6 1023.2 1023.2 0.2
15/02:30am 12.0 10.6 10.9 93 0.6 SSE 9 11 5 6 1022.8 1022.8 0.2
15/02:00am 12.1 10.7 11.0 93 0.6 SSE 9 11 5 6 1022.8 1022.8 0.2
15/01:30am 12.1 10.8 11.2 94 0.5 S 9 13 5 7 1023.1 1023.1 0.2
15/01:00am 12.1 10.4 11.2 94 0.5 SSW 11 13 6 7 1023.2 1023.2 0.2
15/12:30am 12.2 10.9 11.3 94 0.5 S 9 13 5 7 1023.4 1023.4 0.2
15/12:00am 12.5 11.3 11.6 94 0.5 SSW 9 15 5 8 1023.8 1023.8 0.2
 
Date/Time
WST
Temp
°C
App
Temp
°C
Dew
Point
°C
Rel
Hum
%
Delta-T
°C
Wind Press
QNH
hPa
Press
MSL
hPa
Rain since
9am
mm
Dir  Spd
km/h
Gust
km/h
Spd
kts
Gust
kts
14/11:30pm 12.5 10.9 11.7 95 0.4 S 11 15 6 8 1023.6 1023.6 0.2
14/11:00pm 12.6 10.7 11.8 95 0.4 S 13 20 7 11 1023.9 1023.9 0.2
14/10:30pm 12.6 10.7 11.7 94 0.5 S 13 19 7 10 1023.9 1023.9 0.2
14/10:00pm 12.6 10.7 11.7 94 0.5 SSE 13 17 7 9 1024.0 1024.0 0.2
14/09:30pm 13.1 11.7 12.2 94 0.5 S 11 15 6 8 1024.2 1024.2 0.0
14/09:00pm 13.1 10.6 12.2 94 0.5 S 17 22 9 12 1024.2 1024.2 0.0
14/08:30pm 13.3 10.8 12.2 93 0.6 S 17 24 9 13 1023.8 1023.8 0.0
14/08:00pm 14.0 11.6 12.6 91 0.8 SSE 17 30 9 16 1023.5 1023.5 0.0
14/07:30pm 14.5 12.1 12.7 89 1.0 S 17 24 9 13 1023.5 1023.5 0.0
14/07:00pm 15.5 13.8 13.5 88 1.1 SSE 15 20 8 11 1023.0 1023.0 0.0
14/06:30pm 16.2 14.9 13.7 85 1.4 SSE 13 20 7 11 1022.3 1022.2 0.0
14/06:00pm 17.1 16.1 13.4 79 2.1 S 11 17 6 9 1022.1 1022.0 0.0
14/05:30pm 17.8 16.4 13.3 75 2.6 S 13 20 7 11 1021.7 1021.6 0.0
14/05:00pm 21.4 19.4 13.8 62 4.4 SSW 17 30 9 16 1021.5 1021.4 0.0
14/04:30pm 22.4 21.1 13.7 58 5.1 SSW 13 17 7 9 1021.2 1021.1 0.0
14/04:00pm 22.5 21.9 13.6 57 5.2 SW 9 17 5 9 1021.0 1020.9 0.0
14/03:30pm 22.7 21.3 13.5 56 5.4 SW 13 20 7 11 1020.5 1020.5 0.0
14/03:00pm 23.0 21.1 12.9 53 5.9 WSW 15 22 8 12 1020.7 1020.7 0.0
14/02:30pm 23.9 22.3 12.8 49 6.5 WSW 13 22 7 12 1020.9 1020.8 0.0
14/02:00pm 23.4 21.4 12.7 51 6.2 WNW 15 20 8 11 1021.2 1021.1 0.0
14/01:30pm 24.6 22.4 13.2 49 6.7 WNW 17 24 9 13 1021.4 1021.3 0.0
14/01:00pm 22.9 20.9 12.8 53 5.8 W 15 24 8 13 1021.6 1021.5 0.0
14/12:30pm 22.5 20.7 13.3 56 5.4 WSW 15 30 8 16 1021.9 1021.8 0.0
14/12:00pm 22.6 20.2 13.7 57 5.2 SW 19 30 10 16 1022.1 1022.0 0.0
14/11:30am 22.7 20.6 13.5 56 5.4 WSW 17 26 9 14 1022.1 1022.0 0.0
14/11:00am 22.6 21.3 13.7 57 5.2 W 13 22 7 12 1022.6 1022.5 0.0
14/10:30am 22.2 20.8 13.5 57 5.1 WNW 13 22 7 12 1022.6 1022.5 0.0
14/10:00am 21.5 19.0 13.4 60 4.7 WSW 19 28 10 15 1022.7 1022.7 0.0
14/09:30am 21.1 18.7 13.8 63 4.3 W 19 30 10 16 1023.1 1023.1 0.0
14/09:00am 19.4 16.8 13.1 67 3.6 W 19 26 10 14 1023.3 1023.3 0.0
14/08:30am 20.0 17.6 13.7 67 3.7 WNW 19 26 10 14 1023.4 1023.4 0.0
14/08:00am 17.7 15.8 13.0 74 2.7 WNW 15 22 8 12 1023.0 1023.0 0.0
14/07:30am 16.5 15.5 12.3 76 2.3 WNW 9 13 5 7 1022.5 1022.4 0.0
14/07:00am 15.6 14.5 11.8 78 2.1 W 9 13 5 7 1022.3 1022.2 0.0
14/06:30am 15.4 13.4 11.6 78 2.1 WNW 13 17 7 9 1022.1 1022.0 0.0
14/06:00am 15.2 13.6 11.6 79 2.0 WNW 11 15 6 8 1021.9 1021.8 0.0
14/05:30am 14.4 13.4 11.0 80 1.8 WNW 7 11 4 6 1021.6 1021.5 0.0
14/05:00am 14.6 13.8 11.0 79 1.9 WNW 6 9 3 5 1021.7 1021.6 0.0
14/04:30am 15.0 14.2 11.0 77 2.2 WNW 6 9 3 5 1021.4 1021.3 0.0
14/04:00am 15.4 14.1 11.4 77 2.2 WNW 9 17 5 9 1020.5 1020.5 0.0
14/03:30am 14.7 13.0 11.3 80 1.8 WNW 11 15 6 8 1020.2 1020.2 0.0
14/03:00am 15.0 13.3 11.2 78 2.1 WNW 11 15 6 8 1020.4 1020.4 0.0
14/02:30am 15.3 13.2 11.3 77 2.2 WNW 13 17 7 9 1020.5 1020.5 0.0
14/02:00am 15.1 13.9 11.7 80 1.9 WNW 9 13 5 7 1020.9 1020.8 0.0
14/01:30am 14.4 12.7 11.2 81 1.7 WNW 11 15 6 8 1021.2 1021.1 0.0
14/01:00am 15.3 13.9 10.9 75 2.4 W 9 11 5 6 1021.3 1021.2 0.0
14/12:30am 16.6 15.3 11.1 70 3.0 W 9 11 5 6 1021.5 1021.4 0.0
14/12:00am 18.0 16.8 11.6 66 3.5 W 9 13 5 7 1021.5 1021.4 0.0
 
Date/Time
WST
Temp
°C
App
Temp
°C
Dew
Point
°C
Rel
Hum
%
Delta-T
°C
Wind Press
QNH
hPa
Press
MSL
hPa
Rain since
9am
mm
Dir  Spd
km/h
Gust
km/h
Spd
kts
Gust
kts
13/11:30pm 18.2 17.1 12.0 67 3.5 WSW 9 15 5 8 1021.4 1021.3 0.0
13/11:00pm 18.2 16.4 12.2 68 3.4 WSW 13 17 7 9 1021.6 1021.5 0.0
13/10:30pm 18.5 17.2 12.5 68 3.4 WSW 11 15 6 8 1021.8 1021.7 0.0
13/10:00pm 18.3 16.4 11.8 66 3.6 W 13 17 7 9 1021.7 1021.6 0.0
13/09:30pm 18.0 16.7 11.1 64 3.8 W 9 11 5 6 1021.7 1021.6 0.0
13/09:00pm 18.2 16.8 10.8 62 4.0 WNW 9 13 5 7 1021.6 1021.5 0.0
13/08:30pm 17.8 16.3 10.4 62 4.0 WNW 9 13 5 7 1021.4 1021.3 0.0
13/08:00pm 18.9 16.6 10.5 58 4.6 W 13 17 7 9 1021.4 1021.3 0.0
13/07:30pm 18.9 17.0 10.5 58 4.6 WNW 11 15 6 8 1021.2 1021.1 0.0
13/07:00pm 19.3 18.0 10.0 55 5.0 WNW 7 9 4 5 1021.1 1021.0 0.0
13/06:30pm 21.3 19.3 10.2 49 6.1 WNW 11 15 6 8 1020.7 1020.7 0.0
13/06:00pm 22.9 20.9 10.0 44 7.1 WNW 11 15 6 8 1020.3 1020.3 0.0
13/05:30pm 24.4 21.4 9.2 38 8.4 W 15 20 8 11 1020.2 1020.2 0.0
13/05:00pm 26.2 22.6 8.2 32 9.8 W 17 28 9 15 1020.1 1020.1 0.0
13/04:30pm 27.7 23.9 9.0 31 10.4 WNW 19 28 10 15 1019.9 1019.9 0.0
13/04:00pm 28.4 23.8 8.1 28 11.2 NW 22 33 12 18 1019.8 1019.8 0.0
13/03:30pm 28.5 23.8 7.7 27 11.4 WNW 22 35 12 19 1019.8 1019.8 0.0
13/03:00pm 28.9 25.2 10.1 31 10.7 WNW 20 33 11 18 1019.8 1019.8 0.0
13/02:30pm 28.3 23.6 9.1 30 10.7 WNW 24 39 13 21 1020.1 1020.1 0.0
13/02:00pm 28.4 23.4 8.1 28 11.2 NW 24 41 13 22 1020.3 1020.3 0.0
13/01:30pm 28.4 23.9 8.7 29 11.0 WNW 22 39 12 21 1020.6 1020.6 0.0
13/01:00pm 29.0 24.7 9.2 29 11.1 NW 22 39 12 21 1021.0 1020.9 0.0
13/12:30pm 28.0 23.9 8.8 30 10.7 NW 20 33 11 18 1021.3 1021.2 0.0
13/12:00pm 27.7 23.7 9.0 31 10.4 N 20 35 11 19 1021.7 1021.6 0.0
13/11:30am 27.0 24.4 10.7 36 9.3 NNW 15 24 8 13 1022.3 1022.2 0.0
13/11:00am 24.7 22.0 11.6 44 7.5 N 17 24 9 13 1022.7 1022.7 0.0
13/10:30am 23.5 21.4 12.5 50 6.4 N 15 22 8 12 1023.2 1023.2 0.0
13/10:00am 21.8 19.3 12.4 55 5.4 NNE 17 24 9 13 1023.6 1023.6 0.0
13/09:30am 20.1 17.5 13.1 64 4.0 NNE 19 26 10 14 1023.9 1023.9 0.0
13/09:00am 18.5 16.2 12.9 70 3.2 NE 17 28 9 15 1024.1 1024.1 0.0

Other formats

Comma delimited format used in spreadsheet applications
http://www.bom.gov.au/fwo/IDW60801/IDW60801.95636.axf

JavaScript Object Notation format (JSON) in row-major order
http://www.bom.gov.au/fwo/IDW60801/IDW60801.95636.json

Data quality

Most of these data are generated automatically and are frequently updated. Quality checks on data are not normally performed. It is possible for incorrect values to appear. Refer to information at About Latest Weather Observations and please check the disclaimer before using these data.